sensor_id;sensor_type;location;lat;lon;timestamp;temperature;humidity
4828;DHT22;2428;48.732;9.148;2022-09-12T00:00:37;13.60;99.90
4828;DHT22;2428;48.732;9.148;2022-09-12T00:03:03;13.50;99.90
4828;DHT22;2428;48.732;9.148;2022-09-12T00:05:28;13.50;99.90
4828;DHT22;2428;48.732;9.148;2022-09-12T00:07:55;13.50;99.90
4828;DHT22;2428;48.732;9.148;2022-09-12T00:10:21;13.50;99.90
4828;DHT22;2428;48.732;9.148;2022-09-12T00:12:46;13.50;99.90
4828;DHT22;2428;48.732;9.148;2022-09-12T00:15:12;13.50;99.90
4828;DHT22;2428;48.732;9.148;2022-09-12T00:17:38;13.50;99.90
4828;DHT22;2428;48.732;9.148;2022-09-12T00:20:06;13.50;99.90
4828;DHT22;2428;48.732;9.148;2022-09-12T00:22:33;13.50;99.90
4828;DHT22;2428;48.732;9.148;2022-09-12T00:24:59;13.40;99.90
4828;DHT22;2428;48.732;9.148;2022-09-12T00:27:25;13.40;99.90
4828;DHT22;2428;48.732;9.148;2022-09-12T00:29:51;13.40;99.90
4828;DHT22;2428;48.732;9.148;2022-09-12T00:32:16;13.40;99.90
4828;DHT22;2428;48.732;9.148;2022-09-12T00:34:42;13.40;99.90
4828;DHT22;2428;48.732;9.148;2022-09-12T00:37:08;13.40;99.90
4828;DHT22;2428;48.732;9.148;2022-09-12T00:39:33;13.30;99.90
4828;DHT22;2428;48.732;9.148;2022-09-12T00:41:59;13.30;99.90
4828;DHT22;2428;48.732;9.148;2022-09-12T00:46:58;13.20;99.90
4828;DHT22;2428;48.732;9.148;2022-09-12T00:51:54;13.20;99.90
4828;DHT22;2428;48.732;9.148;2022-09-12T00:54:27;13.20;99.90
4828;DHT22;2428;48.732;9.148;2022-09-12T00:56:58;13.10;99.90
4828;DHT22;2428;48.732;9.148;2022-09-12T00:59:38;13.10;99.90
4828;DHT22;2428;48.732;9.148;2022-09-12T01:02:05;13.10;99.90
4828;DHT22;2428;48.732;9.148;2022-09-12T01:04:31;13.10;99.90
4828;DHT22;2428;48.732;9.148;2022-09-12T01:06:57;13.10;99.90
4828;DHT22;2428;48.732;9.148;2022-09-12T01:09:24;13.00;99.90
4828;DHT22;2428;48.732;9.148;2022-09-12T01:11:51;13.00;99.90
4828;DHT22;2428;48.732;9.148;2022-09-12T01:14:18;13.00;99.90
4828;DHT22;2428;48.732;9.148;2022-09-12T01:16:45;13.10;99.90
4828;DHT22;2428;48.732;9.148;2022-09-12T01:31:00;13.00;99.90
4828;DHT22;2428;48.732;9.148;2022-09-12T01:38:52;13.00;99.90
4828;DHT22;2428;48.732;9.148;2022-09-12T01:47:04;12.90;99.90
4828;DHT22;2428;48.732;9.148;2022-09-12T01:49:39;12.90;99.90
4828;DHT22;2428;48.732;9.148;2022-09-12T01:52:26;12.90;99.90
4828;DHT22;2428;48.732;9.148;2022-09-12T01:55:10;12.90;99.90
4828;DHT22;2428;48.732;9.148;2022-09-12T01:57:51;12.90;99.90
4828;DHT22;2428;48.732;9.148;2022-09-12T02:00:18;12.90;99.90
4828;DHT22;2428;48.732;9.148;2022-09-12T02:03:00;12.90;99.90
4828;DHT22;2428;48.732;9.148;2022-09-12T02:05:41;12.90;99.90
4828;DHT22;2428;48.732;9.148;2022-09-12T02:08:13;12.90;99.90
4828;DHT22;2428;48.732;9.148;2022-09-12T02:10:45;12.80;99.90
4828;DHT22;2428;48.732;9.148;2022-09-12T02:13:20;12.80;99.90
4828;DHT22;2428;48.732;9.148;2022-09-12T02:15:52;12.90;99.90
4828;DHT22;2428;48.732;9.148;2022-09-12T02:18:20;12.90;99.90
4828;DHT22;2428;48.732;9.148;2022-09-12T02:20:47;12.90;99.90
4828;DHT22;2428;48.732;9.148;2022-09-12T02:23:18;12.90;99.90
4828;DHT22;2428;48.732;9.148;2022-09-12T02:25:46;12.80;99.90
4828;DHT22;2428;48.732;9.148;2022-09-12T02:28:16;12.90;99.90
4828;DHT22;2428;48.732;9.148;2022-09-12T02:30:49;12.80;99.90
4828;DHT22;2428;48.732;9.148;2022-09-12T02:33:32;12.80;99.90
4828;DHT22;2428;48.732;9.148;2022-09-12T02:36:13;12.70;99.90
4828;DHT22;2428;48.732;9.148;2022-09-12T02:38:44;12.80;99.90
4828;DHT22;2428;48.732;9.148;2022-09-12T02:41:14;12.70;99.90
4828;DHT22;2428;48.732;9.148;2022-09-12T02:43:40;12.70;99.90
4828;DHT22;2428;48.732;9.148;2022-09-12T02:46:09;12.70;99.90
4828;DHT22;2428;48.732;9.148;2022-09-12T02:48:41;12.70;99.90
4828;DHT22;2428;48.732;9.148;2022-09-12T02:51:08;12.60;99.90
4828;DHT22;2428;48.732;9.148;2022-09-12T02:53:35;12.60;99.90
4828;DHT22;2428;48.732;9.148;2022-09-12T02:56:01;12.60;99.90
4828;DHT22;2428;48.732;9.148;2022-09-12T02:58:30;12.60;99.90
4828;DHT22;2428;48.732;9.148;2022-09-12T03:00:59;12.60;99.90
4828;DHT22;2428;48.732;9.148;2022-09-12T03:06:38;12.50;99.90
4828;DHT22;2428;48.732;9.148;2022-09-12T03:09:12;12.50;99.90
4828;DHT22;2428;48.732;9.148;2022-09-12T03:15:11;12.40;99.90
4828;DHT22;2428;48.732;9.148;2022-09-12T03:26:05;12.40;99.90
4828;DHT22;2428;48.732;9.148;2022-09-12T03:28:33;12.40;99.90
4828;DHT22;2428;48.732;9.148;2022-09-12T03:30:59;12.40;99.90
4828;DHT22;2428;48.732;9.148;2022-09-12T03:33:25;12.30;99.90
4828;DHT22;2428;48.732;9.148;2022-09-12T03:35:51;12.30;99.90
4828;DHT22;2428;48.732;9.148;2022-09-12T03:38:18;12.30;99.90
4828;DHT22;2428;48.732;9.148;2022-09-12T03:40:43;12.30;99.90
4828;DHT22;2428;48.732;9.148;2022-09-12T03:43:11;12.30;99.90
4828;DHT22;2428;48.732;9.148;2022-09-12T03:45:36;12.30;99.90
4828;DHT22;2428;48.732;9.148;2022-09-12T03:48:03;12.30;99.90
4828;DHT22;2428;48.732;9.148;2022-09-12T03:50:29;12.30;99.90
4828;DHT22;2428;48.732;9.148;2022-09-12T03:52:57;12.30;99.90
4828;DHT22;2428;48.732;9.148;2022-09-12T03:55:22;12.20;99.90
4828;DHT22;2428;48.732;9.148;2022-09-12T03:57:52;12.30;99.90
4828;DHT22;2428;48.732;9.148;2022-09-12T04:00:18;12.20;99.90
4828;DHT22;2428;48.732;9.148;2022-09-12T04:02:43;12.20;99.90
4828;DHT22;2428;48.732;9.148;2022-09-12T04:05:09;12.20;99.90
4828;DHT22;2428;48.732;9.148;2022-09-12T04:07:34;12.20;99.90
4828;DHT22;2428;48.732;9.148;2022-09-12T04:10:00;12.10;99.90
4828;DHT22;2428;48.732;9.148;2022-09-12T04:12:25;12.10;99.90
4828;DHT22;2428;48.732;9.148;2022-09-12T04:14:51;12.10;99.90
4828;DHT22;2428;48.732;9.148;2022-09-12T04:17:16;12.00;99.90
4828;DHT22;2428;48.732;9.148;2022-09-12T04:19:42;12.00;99.90
4828;DHT22;2428;48.732;9.148;2022-09-12T04:22:07;12.00;99.90
4828;DHT22;2428;48.732;9.148;2022-09-12T04:24:33;11.90;99.90
4828;DHT22;2428;48.732;9.148;2022-09-12T04:26:59;11.90;99.90
4828;DHT22;2428;48.732;9.148;2022-09-12T04:29:24;11.90;99.90
4828;DHT22;2428;48.732;9.148;2022-09-12T04:31:50;11.80;99.90
4828;DHT22;2428;48.732;9.148;2022-09-12T04:34:15;11.80;99.90
4828;DHT22;2428;48.732;9.148;2022-09-12T04:36:41;11.80;99.90
4828;DHT22;2428;48.732;9.148;2022-09-12T04:39:07;11.70;99.90
4828;DHT22;2428;48.732;9.148;2022-09-12T04:41:35;11.70;99.90
4828;DHT22;2428;48.732;9.148;2022-09-12T04:44:05;11.70;99.90
4828;DHT22;2428;48.732;9.148;2022-09-12T04:46:36;11.70;99.90
4828;DHT22;2428;48.732;9.148;2022-09-12T04:49:03;11.70;99.90
4828;DHT22;2428;48.732;9.148;2022-09-12T04:51:34;11.70;99.90
4828;DHT22;2428;48.732;9.148;2022-09-12T04:54:10;11.70;99.90
4828;DHT22;2428;48.732;9.148;2022-09-12T04:56:38;11.70;99.90
4828;DHT22;2428;48.732;9.148;2022-09-12T04:59:04;11.60;99.90
4828;DHT22;2428;48.732;9.148;2022-09-12T05:01:31;11.60;99.90
4828;DHT22;2428;48.732;9.148;2022-09-12T05:03:58;11.60;99.90
4828;DHT22;2428;48.732;9.148;2022-09-12T05:06:27;11.60;99.90
4828;DHT22;2428;48.732;9.148;2022-09-12T05:08:53;11.60;99.90
4828;DHT22;2428;48.732;9.148;2022-09-12T05:11:23;11.60;99.90
4828;DHT22;2428;48.732;9.148;2022-09-12T05:13:48;11.70;99.90
4828;DHT22;2428;48.732;9.148;2022-09-12T05:16:16;11.60;99.90
4828;DHT22;2428;48.732;9.148;2022-09-12T05:18:42;11.70;99.90
4828;DHT22;2428;48.732;9.148;2022-09-12T05:21:11;11.70;99.90
4828;DHT22;2428;48.732;9.148;2022-09-12T05:23:37;11.70;99.90
4828;DHT22;2428;48.732;9.148;2022-09-12T05:26:04;11.70;99.90
4828;DHT22;2428;48.732;9.148;2022-09-12T05:28:33;11.70;99.90
4828;DHT22;2428;48.732;9.148;2022-09-12T05:31:34;11.80;99.90
4828;DHT22;2428;48.732;9.148;2022-09-12T05:34:01;11.80;99.90
4828;DHT22;2428;48.732;9.148;2022-09-12T05:36:29;11.90;99.90
4828;DHT22;2428;48.732;9.148;2022-09-12T05:38:56;11.90;99.90
4828;DHT22;2428;48.732;9.148;2022-09-12T05:41:24;12.00;99.90
4828;DHT22;2428;48.732;9.148;2022-09-12T05:43:54;12.10;99.90
4828;DHT22;2428;48.732;9.148;2022-09-12T05:46:23;12.10;99.90
4828;DHT22;2428;48.732;9.148;2022-09-12T05:48:50;12.10;99.90
4828;DHT22;2428;48.732;9.148;2022-09-12T05:51:21;12.10;99.90
4828;DHT22;2428;48.732;9.148;2022-09-12T05:53:50;12.10;99.90
4828;DHT22;2428;48.732;9.148;2022-09-12T05:56:18;12.10;99.90
4828;DHT22;2428;48.732;9.148;2022-09-12T05:58:47;12.00;99.90
4828;DHT22;2428;48.732;9.148;2022-09-12T06:01:16;12.00;99.90
4828;DHT22;2428;48.732;9.148;2022-09-12T06:03:48;12.10;99.90
4828;DHT22;2428;48.732;9.148;2022-09-12T06:06:17;12.10;99.90
4828;DHT22;2428;48.732;9.148;2022-09-12T06:08:45;12.20;99.90
4828;DHT22;2428;48.732;9.148;2022-09-12T06:11:15;12.20;99.90
4828;DHT22;2428;48.732;9.148;2022-09-12T06:13:41;12.30;99.90
4828;DHT22;2428;48.732;9.148;2022-09-12T06:16:08;12.30;99.90
4828;DHT22;2428;48.732;9.148;2022-09-12T06:18:35;12.40;99.90
4828;DHT22;2428;48.732;9.148;2022-09-12T06:21:06;12.50;99.90
4828;DHT22;2428;48.732;9.148;2022-09-12T06:23:32;12.60;99.90
4828;DHT22;2428;48.732;9.148;2022-09-12T06:25:58;12.60;99.90
4828;DHT22;2428;48.732;9.148;2022-09-12T06:28:24;12.70;99.90
4828;DHT22;2428;48.732;9.148;2022-09-12T06:30:50;12.80;99.90
4828;DHT22;2428;48.732;9.148;2022-09-12T06:33:16;12.80;99.90
4828;DHT22;2428;48.732;9.148;2022-09-12T06:35:42;12.80;99.90
4828;DHT22;2428;48.732;9.148;2022-09-12T06:38:08;12.90;99.90
4828;DHT22;2428;48.732;9.148;2022-09-12T06:40:40;12.90;99.90
4828;DHT22;2428;48.732;9.148;2022-09-12T06:43:06;13.00;99.90
4828;DHT22;2428;48.732;9.148;2022-09-12T06:45:32;13.00;99.90
4828;DHT22;2428;48.732;9.148;2022-09-12T06:47:58;13.10;99.90
4828;DHT22;2428;48.732;9.148;2022-09-12T06:50:23;13.10;99.90
4828;DHT22;2428;48.732;9.148;2022-09-12T06:52:49;13.20;99.90
4828;DHT22;2428;48.732;9.148;2022-09-12T06:55:15;13.20;99.90
4828;DHT22;2428;48.732;9.148;2022-09-12T06:57:41;13.30;99.90
4828;DHT22;2428;48.732;9.148;2022-09-12T07:00:08;13.40;99.90
4828;DHT22;2428;48.732;9.148;2022-09-12T07:02:34;13.40;99.90
4828;DHT22;2428;48.732;9.148;2022-09-12T07:05:00;13.50;99.90
4828;DHT22;2428;48.732;9.148;2022-09-12T07:07:25;13.50;99.90
4828;DHT22;2428;48.732;9.148;2022-09-12T07:09:51;13.50;99.90
4828;DHT22;2428;48.732;9.148;2022-09-12T07:12:16;13.60;99.90
4828;DHT22;2428;48.732;9.148;2022-09-12T07:14:42;13.70;99.90
4828;DHT22;2428;48.732;9.148;2022-09-12T07:17:07;13.80;99.90
4828;DHT22;2428;48.732;9.148;2022-09-12T07:19:33;13.90;99.90
4828;DHT22;2428;48.732;9.148;2022-09-12T07:21:59;13.90;99.90
4828;DHT22;2428;48.732;9.148;2022-09-12T07:24:25;14.00;99.90
4828;DHT22;2428;48.732;9.148;2022-09-12T07:26:51;14.10;99.90
4828;DHT22;2428;48.732;9.148;2022-09-12T07:29:16;14.10;99.90
4828;DHT22;2428;48.732;9.148;2022-09-12T07:31:43;14.20;99.90
4828;DHT22;2428;48.732;9.148;2022-09-12T07:34:09;14.30;99.90
4828;DHT22;2428;48.732;9.148;2022-09-12T07:36:34;14.30;99.90
4828;DHT22;2428;48.732;9.148;2022-09-12T07:39:00;14.40;99.90
4828;DHT22;2428;48.732;9.148;2022-09-12T07:41:28;14.50;99.90
4828;DHT22;2428;48.732;9.148;2022-09-12T07:43:56;14.60;99.90
4828;DHT22;2428;48.732;9.148;2022-09-12T07:46:23;14.80;99.90
4828;DHT22;2428;48.732;9.148;2022-09-12T07:48:54;14.90;99.90
4828;DHT22;2428;48.732;9.148;2022-09-12T07:51:20;14.90;99.90
4828;DHT22;2428;48.732;9.148;2022-09-12T07:53:46;15.00;99.90
4828;DHT22;2428;48.732;9.148;2022-09-12T07:56:13;15.10;99.90
4828;DHT22;2428;48.732;9.148;2022-09-12T07:58:41;15.20;99.90
4828;DHT22;2428;48.732;9.148;2022-09-12T08:01:14;15.20;99.90
4828;DHT22;2428;48.732;9.148;2022-09-12T08:03:42;15.30;99.90
4828;DHT22;2428;48.732;9.148;2022-09-12T08:06:10;15.40;99.90
4828;DHT22;2428;48.732;9.148;2022-09-12T08:08:36;15.50;99.90
4828;DHT22;2428;48.732;9.148;2022-09-12T08:11:05;15.50;99.90
4828;DHT22;2428;48.732;9.148;2022-09-12T08:13:33;15.60;99.90
4828;DHT22;2428;48.732;9.148;2022-09-12T08:16:01;15.80;99.90
4828;DHT22;2428;48.732;9.148;2022-09-12T08:18:27;15.90;99.90
4828;DHT22;2428;48.732;9.148;2022-09-12T08:21:30;16.00;99.90
4828;DHT22;2428;48.732;9.148;2022-09-12T08:24:00;16.10;99.90
4828;DHT22;2428;48.732;9.148;2022-09-12T08:26:26;16.20;99.90
4828;DHT22;2428;48.732;9.148;2022-09-12T08:28:52;16.30;99.90
4828;DHT22;2428;48.732;9.148;2022-09-12T08:31:20;16.30;99.90
4828;DHT22;2428;48.732;9.148;2022-09-12T08:33:46;16.40;99.90
4828;DHT22;2428;48.732;9.148;2022-09-12T08:36:12;16.50;99.90
4828;DHT22;2428;48.732;9.148;2022-09-12T08:38:43;16.40;99.90
4828;DHT22;2428;48.732;9.148;2022-09-12T08:41:19;16.50;99.90
4828;DHT22;2428;48.732;9.148;2022-09-12T08:49:26;16.70;99.90
4828;DHT22;2428;48.732;9.148;2022-09-12T08:51:54;16.80;99.90
4828;DHT22;2428;48.732;9.148;2022-09-12T08:54:23;16.80;99.90
4828;DHT22;2428;48.732;9.148;2022-09-12T08:56:52;16.90;99.90
4828;DHT22;2428;48.732;9.148;2022-09-12T08:59:20;17.00;99.90
4828;DHT22;2428;48.732;9.148;2022-09-12T09:01:46;17.10;99.90
4828;DHT22;2428;48.732;9.148;2022-09-12T09:15:34;17.60;99.90
4828;DHT22;2428;48.732;9.148;2022-09-12T09:18:12;17.60;99.90
4828;DHT22;2428;48.732;9.148;2022-09-12T09:20:45;17.70;99.90
4828;DHT22;2428;48.732;9.148;2022-09-12T09:30:54;17.90;99.90
4828;DHT22;2428;48.732;9.148;2022-09-12T09:33:26;18.00;99.90
4828;DHT22;2428;48.732;9.148;2022-09-12T09:36:48;18.10;99.90
4828;DHT22;2428;48.732;9.148;2022-09-12T09:44:30;18.50;99.90
4828;DHT22;2428;48.732;9.148;2022-09-12T09:46:57;18.60;99.90
4828;DHT22;2428;48.732;9.148;2022-09-12T09:49:26;18.70;99.90
4828;DHT22;2428;48.732;9.148;2022-09-12T09:51:52;18.60;99.90
4828;DHT22;2428;48.732;9.148;2022-09-12T09:54:25;18.60;99.90
4828;DHT22;2428;48.732;9.148;2022-09-12T09:56:52;18.80;99.90
4828;DHT22;2428;48.732;9.148;2022-09-12T09:59:19;19.50;99.90
4828;DHT22;2428;48.732;9.148;2022-09-12T10:01:57;20.40;99.90
4828;DHT22;2428;48.732;9.148;2022-09-12T10:04:30;21.00;99.90
4828;DHT22;2428;48.732;9.148;2022-09-12T10:07:01;21.60;99.90
4828;DHT22;2428;48.732;9.148;2022-09-12T10:09:29;22.00;99.90
4828;DHT22;2428;48.732;9.148;2022-09-12T10:11:58;22.10;99.90
4828;DHT22;2428;48.732;9.148;2022-09-12T10:14:35;22.10;99.90
4828;DHT22;2428;48.732;9.148;2022-09-12T10:17:04;22.00;99.90
4828;DHT22;2428;48.732;9.148;2022-09-12T10:19:46;21.70;99.90
4828;DHT22;2428;48.732;9.148;2022-09-12T10:22:17;21.80;99.90
4828;DHT22;2428;48.732;9.148;2022-09-12T10:24:49;22.70;99.90
4828;DHT22;2428;48.732;9.148;2022-09-12T10:27:22;24.90;99.90
4828;DHT22;2428;48.732;9.148;2022-09-12T10:30:15;26.70;99.90
4828;DHT22;2428;48.732;9.148;2022-09-12T10:32:44;28.60;99.90
4828;DHT22;2428;48.732;9.148;2022-09-12T10:35:30;30.00;97.30
4828;DHT22;2428;48.732;9.148;2022-09-12T10:40:44;31.30;86.70
4828;DHT22;2428;48.732;9.148;2022-09-12T10:43:17;32.70;83.10
4828;DHT22;2428;48.732;9.148;2022-09-12T10:45:48;33.10;75.40
4828;DHT22;2428;48.732;9.148;2022-09-12T10:48:31;34.00;73.90
4828;DHT22;2428;48.732;9.148;2022-09-12T10:50:58;34.20;64.20
4828;DHT22;2428;48.732;9.148;2022-09-12T10:53:38;35.40;66.00
4828;DHT22;2428;48.732;9.148;2022-09-12T10:56:12;34.90;62.00
4828;DHT22;2428;48.732;9.148;2022-09-12T11:01:44;33.10;60.40
4828;DHT22;2428;48.732;9.148;2022-09-12T11:07:07;34.10;59.70
4828;DHT22;2428;48.732;9.148;2022-09-12T11:09:57;32.30;62.50
4828;DHT22;2428;48.732;9.148;2022-09-12T11:12:30;33.40;66.30
4828;DHT22;2428;48.732;9.148;2022-09-12T11:20:48;33.60;58.20
4828;DHT22;2428;48.732;9.148;2022-09-12T11:23:30;33.40;62.70
4828;DHT22;2428;48.732;9.148;2022-09-12T11:32:05;31.50;60.20
4828;DHT22;2428;48.732;9.148;2022-09-12T11:37:45;28.50;71.50
4828;DHT22;2428;48.732;9.148;2022-09-12T11:40:31;27.70;74.20
4828;DHT22;2428;48.732;9.148;2022-09-12T11:45:42;26.20;80.00
4828;DHT22;2428;48.732;9.148;2022-09-12T11:51:18;25.20;78.90
4828;DHT22;2428;48.732;9.148;2022-09-12T11:53:52;24.90;88.10
4828;DHT22;2428;48.732;9.148;2022-09-12T11:56:21;24.50;84.40
4828;DHT22;2428;48.732;9.148;2022-09-12T11:59:04;24.10;90.10
4828;DHT22;2428;48.732;9.148;2022-09-12T12:01:41;24.00;90.70
4828;DHT22;2428;48.732;9.148;2022-09-12T12:04:11;23.80;88.00
4828;DHT22;2428;48.732;9.148;2022-09-12T12:06:48;23.70;88.10
4828;DHT22;2428;48.732;9.148;2022-09-12T12:09:17;23.60;90.30
4828;DHT22;2428;48.732;9.148;2022-09-12T12:11:47;23.50;91.90
4828;DHT22;2428;48.732;9.148;2022-09-12T12:14:18;23.40;91.50
4828;DHT22;2428;48.732;9.148;2022-09-12T12:16:45;23.30;93.80
4828;DHT22;2428;48.732;9.148;2022-09-12T12:21:44;23.40;93.40
4828;DHT22;2428;48.732;9.148;2022-09-12T12:24:18;23.30;92.40
4828;DHT22;2428;48.732;9.148;2022-09-12T12:27:21;23.20;93.40
4828;DHT22;2428;48.732;9.148;2022-09-12T12:29:47;23.10;95.20
4828;DHT22;2428;48.732;9.148;2022-09-12T12:34:43;22.90;93.10
4828;DHT22;2428;48.732;9.148;2022-09-12T12:47:39;22.70;92.10
4828;DHT22;2428;48.732;9.148;2022-09-12T12:50:19;22.70;93.20
4828;DHT22;2428;48.732;9.148;2022-09-12T12:53:16;22.70;94.20
4828;DHT22;2428;48.732;9.148;2022-09-12T12:58:33;22.60;95.10
4828;DHT22;2428;48.732;9.148;2022-09-12T13:01:20;22.60;95.50
4828;DHT22;2428;48.732;9.148;2022-09-12T13:04:02;22.50;94.90
4828;DHT22;2428;48.732;9.148;2022-09-12T13:06:46;22.50;92.70
4828;DHT22;2428;48.732;9.148;2022-09-12T13:09:24;22.40;91.80
4828;DHT22;2428;48.732;9.148;2022-09-12T13:12:01;22.40;94.60
4828;DHT22;2428;48.732;9.148;2022-09-12T13:14:48;22.50;94.40
4828;DHT22;2428;48.732;9.148;2022-09-12T13:19:45;22.50;95.40
4828;DHT22;2428;48.732;9.148;2022-09-12T13:22:10;22.40;92.80
4828;DHT22;2428;48.732;9.148;2022-09-12T13:24:47;22.50;94.30
4828;DHT22;2428;48.732;9.148;2022-09-12T13:27:19;22.50;90.90
4828;DHT22;2428;48.732;9.148;2022-09-12T13:29:45;22.60;92.90
4828;DHT22;2428;48.732;9.148;2022-09-12T13:32:11;22.50;92.10
4828;DHT22;2428;48.732;9.148;2022-09-12T13:40:09;22.60;91.90
4828;DHT22;2428;48.732;9.148;2022-09-12T13:42:46;22.60;90.50
4828;DHT22;2428;48.732;9.148;2022-09-12T13:45:14;22.60;92.00
4828;DHT22;2428;48.732;9.148;2022-09-12T13:47:47;22.70;92.00
4828;DHT22;2428;48.732;9.148;2022-09-12T13:50:26;22.70;94.40
4828;DHT22;2428;48.732;9.148;2022-09-12T13:52:58;22.80;90.10
4828;DHT22;2428;48.732;9.148;2022-09-12T13:58:01;22.80;87.40
4828;DHT22;2428;48.732;9.148;2022-09-12T14:00:27;22.80;86.70
4828;DHT22;2428;48.732;9.148;2022-09-12T14:02:54;22.80;86.40
4828;DHT22;2428;48.732;9.148;2022-09-12T14:05:42;22.90;91.40
4828;DHT22;2428;48.732;9.148;2022-09-12T14:08:11;23.00;88.80
4828;DHT22;2428;48.732;9.148;2022-09-12T14:10:43;23.00;86.70
4828;DHT22;2428;48.732;9.148;2022-09-12T14:13:17;23.10;87.30
4828;DHT22;2428;48.732;9.148;2022-09-12T14:15:45;23.20;85.20
4828;DHT22;2428;48.732;9.148;2022-09-12T14:18:29;23.30;86.40
4828;DHT22;2428;48.732;9.148;2022-09-12T14:21:08;23.50;85.00
4828;DHT22;2428;48.732;9.148;2022-09-12T14:23:38;23.70;83.20
4828;DHT22;2428;48.732;9.148;2022-09-12T14:26:09;24.00;84.10
4828;DHT22;2428;48.732;9.148;2022-09-12T14:28:39;24.20;81.30
4828;DHT22;2428;48.732;9.148;2022-09-12T14:33:51;24.40;75.40
4828;DHT22;2428;48.732;9.148;2022-09-12T14:38:48;24.40;78.80
4828;DHT22;2428;48.732;9.148;2022-09-12T14:41:22;24.50;85.80
4828;DHT22;2428;48.732;9.148;2022-09-12T14:43:53;24.60;83.20
4828;DHT22;2428;48.732;9.148;2022-09-12T14:46:36;24.50;83.70
4828;DHT22;2428;48.732;9.148;2022-09-12T14:49:06;24.60;81.00
4828;DHT22;2428;48.732;9.148;2022-09-12T14:57:00;24.60;82.80
4828;DHT22;2428;48.732;9.148;2022-09-12T15:04:51;24.80;87.00
4828;DHT22;2428;48.732;9.148;2022-09-12T15:07:38;24.80;86.40
4828;DHT22;2428;48.732;9.148;2022-09-12T15:12:41;24.80;85.00
4828;DHT22;2428;48.732;9.148;2022-09-12T15:15:18;24.70;84.30
4828;DHT22;2428;48.732;9.148;2022-09-12T15:17:44;24.80;84.90
4828;DHT22;2428;48.732;9.148;2022-09-12T15:20:11;24.80;83.10
4828;DHT22;2428;48.732;9.148;2022-09-12T15:22:37;24.70;81.70
4828;DHT22;2428;48.732;9.148;2022-09-12T15:25:04;24.70;85.20
4828;DHT22;2428;48.732;9.148;2022-09-12T15:27:30;24.80;83.10
4828;DHT22;2428;48.732;9.148;2022-09-12T15:29:56;24.80;87.30
4828;DHT22;2428;48.732;9.148;2022-09-12T15:32:23;24.80;83.00
4828;DHT22;2428;48.732;9.148;2022-09-12T15:34:49;24.80;88.50
4828;DHT22;2428;48.732;9.148;2022-09-12T15:37:15;24.80;86.70
4828;DHT22;2428;48.732;9.148;2022-09-12T15:39:41;24.80;90.20
4828;DHT22;2428;48.732;9.148;2022-09-12T15:42:08;24.80;87.40
4828;DHT22;2428;48.732;9.148;2022-09-12T15:44:35;24.60;83.80
4828;DHT22;2428;48.732;9.148;2022-09-12T15:47:00;24.50;85.80
4828;DHT22;2428;48.732;9.148;2022-09-12T15:49:26;24.50;85.90
4828;DHT22;2428;48.732;9.148;2022-09-12T15:51:52;24.40;85.00
4828;DHT22;2428;48.732;9.148;2022-09-12T15:54:18;24.20;84.40
4828;DHT22;2428;48.732;9.148;2022-09-12T15:56:45;24.20;89.10
4828;DHT22;2428;48.732;9.148;2022-09-12T15:59:10;24.00;86.30
4828;DHT22;2428;48.732;9.148;2022-09-12T16:01:36;24.10;90.30
4828;DHT22;2428;48.732;9.148;2022-09-12T16:04:02;24.10;92.00
4828;DHT22;2428;48.732;9.148;2022-09-12T16:06:28;24.10;90.30
4828;DHT22;2428;48.732;9.148;2022-09-12T16:08:55;23.90;87.30
4828;DHT22;2428;48.732;9.148;2022-09-12T16:11:23;23.80;87.60
4828;DHT22;2428;48.732;9.148;2022-09-12T16:13:51;23.80;86.00
4828;DHT22;2428;48.732;9.148;2022-09-12T16:16:16;23.60;86.00
4828;DHT22;2428;48.732;9.148;2022-09-12T16:18:42;23.60;86.10
4828;DHT22;2428;48.732;9.148;2022-09-12T16:21:07;23.50;86.30
4828;DHT22;2428;48.732;9.148;2022-09-12T16:23:33;23.50;86.50
4828;DHT22;2428;48.732;9.148;2022-09-12T16:26:04;23.40;85.80
4828;DHT22;2428;48.732;9.148;2022-09-12T16:28:30;23.40;88.10
4828;DHT22;2428;48.732;9.148;2022-09-12T16:30:59;23.30;86.20
4828;DHT22;2428;48.732;9.148;2022-09-12T16:33:25;23.30;90.70
4828;DHT22;2428;48.732;9.148;2022-09-12T16:35:51;23.20;90.60
4828;DHT22;2428;48.732;9.148;2022-09-12T16:38:22;23.10;87.80
4828;DHT22;2428;48.732;9.148;2022-09-12T16:40:48;23.00;87.70
4828;DHT22;2428;48.732;9.148;2022-09-12T16:43:13;23.00;90.10
4828;DHT22;2428;48.732;9.148;2022-09-12T16:45:42;22.90;89.20
4828;DHT22;2428;48.732;9.148;2022-09-12T16:48:08;22.80;89.70
4828;DHT22;2428;48.732;9.148;2022-09-12T16:50:33;22.80;89.10
4828;DHT22;2428;48.732;9.148;2022-09-12T16:52:59;22.70;91.40
4828;DHT22;2428;48.732;9.148;2022-09-12T16:55:24;22.60;92.30
4828;DHT22;2428;48.732;9.148;2022-09-12T16:57:52;22.60;92.90
4828;DHT22;2428;48.732;9.148;2022-09-12T17:00:18;22.40;93.70
4828;DHT22;2428;48.732;9.148;2022-09-12T17:02:44;22.30;91.30
4828;DHT22;2428;48.732;9.148;2022-09-12T17:05:09;22.30;91.30
4828;DHT22;2428;48.732;9.148;2022-09-12T17:07:35;22.20;91.50
4828;DHT22;2428;48.732;9.148;2022-09-12T17:10:00;22.10;91.50
4828;DHT22;2428;48.732;9.148;2022-09-12T17:12:26;22.10;91.60
4828;DHT22;2428;48.732;9.148;2022-09-12T17:14:51;22.10;92.70
4828;DHT22;2428;48.732;9.148;2022-09-12T17:17:17;22.00;93.30
4828;DHT22;2428;48.732;9.148;2022-09-12T17:19:43;22.00;95.00
4828;DHT22;2428;48.732;9.148;2022-09-12T17:22:08;21.90;94.40
4828;DHT22;2428;48.732;9.148;2022-09-12T17:24:34;21.90;94.30
4828;DHT22;2428;48.732;9.148;2022-09-12T17:27:00;21.70;94.30
4828;DHT22;2428;48.732;9.148;2022-09-12T17:29:25;21.70;94.10
4828;DHT22;2428;48.732;9.148;2022-09-12T17:31:51;21.60;94.70
4828;DHT22;2428;48.732;9.148;2022-09-12T17:34:19;21.60;94.70
4828;DHT22;2428;48.732;9.148;2022-09-12T17:36:45;21.50;94.70
4828;DHT22;2428;48.732;9.148;2022-09-12T17:39:13;21.40;97.70
4828;DHT22;2428;48.732;9.148;2022-09-12T17:41:38;21.30;97.80
4828;DHT22;2428;48.732;9.148;2022-09-12T17:44:06;21.20;99.80
4828;DHT22;2428;48.732;9.148;2022-09-12T17:46:35;21.20;99.90
4828;DHT22;2428;48.732;9.148;2022-09-12T17:49:02;21.10;99.90
4828;DHT22;2428;48.732;9.148;2022-09-12T17:51:29;21.00;99.90
4828;DHT22;2428;48.732;9.148;2022-09-12T17:56:23;20.80;99.90
4828;DHT22;2428;48.732;9.148;2022-09-12T17:58:49;20.70;99.90
4828;DHT22;2428;48.732;9.148;2022-09-12T18:01:14;20.70;99.90
4828;DHT22;2428;48.732;9.148;2022-09-12T18:03:59;20.50;99.90
4828;DHT22;2428;48.732;9.148;2022-09-12T18:06:30;20.30;99.90
4828;DHT22;2428;48.732;9.148;2022-09-12T18:09:04;20.20;99.90
4828;DHT22;2428;48.732;9.148;2022-09-12T18:11:30;20.20;99.90
4828;DHT22;2428;48.732;9.148;2022-09-12T18:13:59;20.10;99.90
4828;DHT22;2428;48.732;9.148;2022-09-12T18:16:25;20.10;99.90
4828;DHT22;2428;48.732;9.148;2022-09-12T18:18:52;20.00;99.90
4828;DHT22;2428;48.732;9.148;2022-09-12T18:21:18;19.90;99.90
4828;DHT22;2428;48.732;9.148;2022-09-12T18:23:44;19.90;99.90
4828;DHT22;2428;48.732;9.148;2022-09-12T18:26:10;19.90;99.90
4828;DHT22;2428;48.732;9.148;2022-09-12T18:28:39;20.00;99.90
4828;DHT22;2428;48.732;9.148;2022-09-12T18:31:11;20.00;99.90
4828;DHT22;2428;48.732;9.148;2022-09-12T18:33:37;20.00;99.90
4828;DHT22;2428;48.732;9.148;2022-09-12T18:36:07;19.90;99.90
4828;DHT22;2428;48.732;9.148;2022-09-12T18:38:33;19.90;99.90
4828;DHT22;2428;48.732;9.148;2022-09-12T18:41:21;19.90;99.90
4828;DHT22;2428;48.732;9.148;2022-09-12T18:43:47;19.80;99.90
4828;DHT22;2428;48.732;9.148;2022-09-12T18:46:18;19.80;99.90
4828;DHT22;2428;48.732;9.148;2022-09-12T18:48:44;19.80;99.90